Terminal Aerodrome Forecast
Issued by NWS

Home | Current Version | Previous Version | Text Only | Print | Product List | Glossary Off
Versions: 1 2 3 4 5 6 7 8 9 10 11 12 13 14 15 16 17

000
FTUS43 KMPX 232300
TAFAXN
TAF
KAXN 232334Z 2400/2424 20007KT P6SM FEW250
     FM241700 23008KT P6SM SCT250
     FM242000 26010KT P6SM BKN250=

USA.gov is the U.S. government's official web portal to all federal, state and local government web resources and services.